createdAt,value
2019-03-17T00:02:55.842Z,60.03
2019-03-17T00:07:00.946Z,60.07
2019-03-17T00:11:06.077Z,60.40
2019-03-17T00:15:11.282Z,59.99
2019-03-17T00:19:16.416Z,59.90
2019-03-17T00:23:21.521Z,60.09
2019-03-17T00:27:26.654Z,59.93
2019-03-17T00:31:31.763Z,59.70
2019-03-17T00:35:36.863Z,59.88
2019-03-17T00:39:42.721Z,60.33
2019-03-17T00:43:47.962Z,59.68
2019-03-17T00:47:53.046Z,59.89
2019-03-17T00:51:58.539Z,60.32
2019-03-17T00:56:03.710Z,60.18
2019-03-17T01:00:10.032Z,60.35
2019-03-17T01:04:15.191Z,60.43
2019-03-17T01:08:21.990Z,60.96
2019-03-17T01:12:27.185Z,61.11
2019-03-17T01:16:32.312Z,61.24
2019-03-17T01:20:37.491Z,61.59
2019-03-17T01:24:43.056Z,61.62
2019-03-17T01:28:48.239Z,61.81
2019-03-17T01:32:53.325Z,61.95
2019-03-17T01:36:58.506Z,61.48
2019-03-17T01:41:03.647Z,61.39
2019-03-17T01:45:08.838Z,61.96
2019-03-17T01:49:13.991Z,62.37
2019-03-17T01:53:19.073Z,62.52
2019-03-17T01:57:24.216Z,61.96
2019-03-17T02:01:30.590Z,62.47
2019-03-17T02:05:35.848Z,62.33
2019-03-17T02:09:41.137Z,62.24
2019-03-17T02:13:46.249Z,62.52
2019-03-17T02:17:51.482Z,62.27
2019-03-17T02:21:56.652Z,61.86
2019-03-17T02:26:01.780Z,60.86
2019-03-17T02:30:07.369Z,59.71
2019-03-17T02:34:12.436Z,58.44
2019-03-17T02:38:17.525Z,58.37
2019-03-17T02:42:22.608Z,57.57
2019-03-17T02:46:27.731Z,57.14
2019-03-17T02:50:32.944Z,57.34
2019-03-17T02:54:38.087Z,57.46
2019-03-17T02:58:43.176Z,57.69
2019-03-17T03:02:48.286Z,57.93
2019-03-17T03:06:53.395Z,58.55
2019-03-17T03:10:58.476Z,58.77
2019-03-17T03:15:04.766Z,59.61
2019-03-17T03:19:09.939Z,61.16
2019-03-17T03:23:15.089Z,63.70
2019-03-17T03:27:20.558Z,64.20
2019-03-17T03:31:25.704Z,65.29
2019-03-17T03:35:30.871Z,64.28
2019-03-17T03:39:36.087Z,64.71
2019-03-17T03:43:42.168Z,64.75
2019-03-17T03:47:47.273Z,64.80
2019-03-17T03:51:52.361Z,64.38
2019-03-17T03:55:57.513Z,64.05
2019-03-17T04:00:02.610Z,64.07
2019-03-17T04:04:07.842Z,63.14
2019-03-17T04:08:12.971Z,62.58
2019-03-17T04:12:18.707Z,62.95
2019-03-17T04:16:23.984Z,62.62
2019-03-17T04:20:29.094Z,62.48
2019-03-17T04:24:34.580Z,62.85
2019-03-17T04:28:39.709Z,63.34
2019-03-17T04:32:44.917Z,65.54
2019-03-17T04:36:50.441Z,66.20
2019-03-17T04:40:55.547Z,66.90
2019-03-17T04:45:00.819Z,68.21
2019-03-17T04:49:05.953Z,68.79
2019-03-17T04:53:11.029Z,69.73
2019-03-17T04:57:16.130Z,70.15
2019-03-17T05:01:21.327Z,71.22
2019-03-17T05:05:26.742Z,70.83
2019-03-17T05:09:31.914Z,71.39
2019-03-17T05:13:37.024Z,71.39
2019-03-17T05:17:42.249Z,71.70
2019-03-17T05:21:47.465Z,71.74
2019-03-17T05:25:52.569Z,72.22
2019-03-17T05:29:57.714Z,72.21
2019-03-17T05:34:03.235Z,73.14
2019-03-17T05:38:08.375Z,73.14
2019-03-17T05:42:13.505Z,73.94
2019-03-17T05:46:18.669Z,74.73
2019-03-17T05:50:23.797Z,76.09
2019-03-17T05:54:31.371Z,76.53
2019-03-17T05:58:36.563Z,76.38
2019-03-17T06:02:41.750Z,76.11
2019-03-17T06:06:46.839Z,76.92
2019-03-17T06:10:52.017Z,76.00
2019-03-17T06:14:58.107Z,76.04
2019-03-17T06:19:03.265Z,75.66
2019-03-17T06:23:08.384Z,75.17
2019-03-17T06:27:14.075Z,75.73
2019-03-17T06:31:19.275Z,75.73
2019-03-17T06:35:24.514Z,76.62
2019-03-17T06:39:29.938Z,75.80
2019-03-17T06:43:35.192Z,76.20
2019-03-17T06:47:40.273Z,76.08
2019-03-17T06:51:46.484Z,76.32
2019-03-17T06:55:51.630Z,77.12
2019-03-17T06:59:56.777Z,77.88
2019-03-17T07:04:01.937Z,75.79
2019-03-17T07:08:07.216Z,75.79
2019-03-17T07:12:13.625Z,75.29
2019-03-17T07:16:19.055Z,75.90
2019-03-17T07:20:24.252Z,76.34
2019-03-17T07:24:29.377Z,75.81
2019-03-17T07:28:34.473Z,75.81
2019-03-17T07:32:39.729Z,75.23
2019-03-17T07:36:44.829Z,74.05
2019-03-17T07:40:49.949Z,73.92
2019-03-17T07:44:55.084Z,73.87
2019-03-17T07:49:01.064Z,73.41
2019-03-17T07:53:06.147Z,73.41
2019-03-17T07:57:13.330Z,73.95
2019-03-17T08:01:18.432Z,73.60
2019-03-17T08:05:23.945Z,73.15
2019-03-17T08:09:29.092Z,73.12
2019-03-17T08:13:34.233Z,73.17
2019-03-17T08:17:39.330Z,72.45
2019-03-17T08:21:44.506Z,72.78
2019-03-17T08:25:49.615Z,72.01
2019-03-17T08:29:54.713Z,71.33
2019-03-17T08:34:00.122Z,71.09
2019-03-17T08:38:05.276Z,70.61
2019-03-17T08:42:10.403Z,70.16
2019-03-17T08:46:15.677Z,70.19
2019-03-17T08:50:21.033Z,70.21
2019-03-17T08:54:26.164Z,70.16
2019-03-17T08:58:31.292Z,69.49
2019-03-17T09:02:36.693Z,69.67
2019-03-17T09:06:45.345Z,69.58
2019-03-17T09:10:50.459Z,69.76
2019-03-17T09:14:55.677Z,69.20
2019-03-17T09:19:00.758Z,67.62
2019-03-17T09:23:05.915Z,66.25
2019-03-17T09:27:11.045Z,65.62
2019-03-17T09:31:16.211Z,64.66
2019-03-17T09:35:21.314Z,64.66
2019-03-17T09:39:26.445Z,64.74
2019-03-17T09:43:31.970Z,64.45
2019-03-17T09:47:40.962Z,63.42
2019-03-17T09:51:46.706Z,63.44
2019-03-17T09:55:52.813Z,60.89
2019-03-17T09:59:57.919Z,60.60
2019-03-17T10:04:03.129Z,60.21
2019-03-17T10:08:08.237Z,61.08
2019-03-17T10:12:13.420Z,60.85
2019-03-17T10:16:18.617Z,60.25
2019-03-17T10:20:23.732Z,58.37
2019-03-17T10:24:28.835Z,56.45
2019-03-17T10:28:35.271Z,57.40
2019-03-17T10:32:40.819Z,55.46
2019-03-17T10:36:46.015Z,53.73
2019-03-17T10:40:51.274Z,54.10
2019-03-17T10:44:56.437Z,52.78
2019-03-17T10:49:01.587Z,50.44
2019-03-17T10:53:06.770Z,50.21
2019-03-17T10:57:11.945Z,47.98
2019-03-17T11:01:17.062Z,49.41
2019-03-17T11:05:22.214Z,48.37
2019-03-17T11:09:27.424Z,48.39
2019-03-17T11:13:32.968Z,48.31
2019-03-17T11:17:38.156Z,47.61
2019-03-17T11:21:43.286Z,47.18
2019-03-17T11:25:48.846Z,47.29
2019-03-17T11:29:53.951Z,47.42
2019-03-17T11:33:59.132Z,53.05
2019-03-17T11:38:04.422Z,57.04
2019-03-17T11:42:09.880Z,58.57
2019-03-17T11:46:15.037Z,59.04
2019-03-17T11:50:20.197Z,60.02
2019-03-17T11:54:25.740Z,60.97
2019-03-17T11:58:31.009Z,59.43
2019-03-17T12:02:36.124Z,57.96
2019-03-17T12:06:41.327Z,55.25
2019-03-17T12:10:46.450Z,53.79
2019-03-17T12:18:54.647Z,62.00
2019-03-17T12:22:59.917Z,66.31
2019-03-17T12:27:05.087Z,65.59
2019-03-17T12:31:10.231Z,63.65
2019-03-17T12:35:15.485Z,62.36
2019-03-17T12:39:20.702Z,58.04
2019-03-17T12:43:25.892Z,56.69
2019-03-17T12:47:31.055Z,55.73
2019-03-17T12:51:36.145Z,57.56
2019-03-17T12:55:41.317Z,55.61
2019-03-17T12:59:46.481Z,56.96
2019-03-17T13:03:51.611Z,59.49
2019-03-17T13:07:56.866Z,58.03
2019-03-17T13:12:03.617Z,59.88
2019-03-17T13:16:08.854Z,58.60
2019-03-17T13:20:14.135Z,55.70
2019-03-17T13:28:35.591Z,49.19
2019-03-17T13:32:40.724Z,47.66
2019-03-17T13:36:46.741Z,50.61
2019-03-17T13:41:11.879Z,50.04
2019-03-17T13:45:16.992Z,45.50
2019-03-17T13:49:22.108Z,44.48
2019-03-17T13:53:27.310Z,46.36
2019-03-17T14:01:49.845Z,41.64
2019-03-17T14:05:55.113Z,43.25
2019-03-17T14:10:12.607Z,43.26
2019-03-17T14:14:16.810Z,46.32
2019-03-17T14:18:21.978Z,46.71
2019-03-17T14:22:27.133Z,48.39
2019-03-17T14:26:32.248Z,48.12
2019-03-17T14:30:37.596Z,49.97
2019-03-17T14:34:42.697Z,49.74
2019-03-17T14:38:47.879Z,50.31
2019-03-17T14:42:55.442Z,49.92
2019-03-17T14:47:05.227Z,49.59
2019-03-17T14:51:10.346Z,50.00
2019-03-17T14:55:16.010Z,50.38
2019-03-17T14:59:21.166Z,50.44
2019-03-17T15:03:26.261Z,48.58
2019-03-17T15:07:31.406Z,51.23
2019-03-17T15:11:36.597Z,52.48
2019-03-17T15:15:41.825Z,54.29
2019-03-17T15:19:47.064Z,53.55
2019-03-17T15:23:52.168Z,51.77
2019-03-17T15:27:57.468Z,51.77
2019-03-17T15:32:02.625Z,52.98
2019-03-17T15:36:07.768Z,55.27
2019-03-17T15:40:13.093Z,56.37
2019-03-17T15:44:18.199Z,53.83
2019-03-17T15:48:23.332Z,53.83
2019-03-17T15:52:28.478Z,54.01
2019-03-17T15:56:33.575Z,54.33
2019-03-17T16:00:38.686Z,53.85
2019-03-17T16:04:43.939Z,54.56
2019-03-17T16:08:49.295Z,56.27
2019-03-17T16:13:13.731Z,57.36
2019-03-17T16:17:18.936Z,58.09
2019-03-17T16:21:24.055Z,58.40
2019-03-17T16:25:29.280Z,58.70
2019-03-17T16:33:58.601Z,57.97
2019-03-17T16:38:03.830Z,57.91
2019-03-17T16:42:08.985Z,57.77
2019-03-17T16:46:14.149Z,57.20
2019-03-17T16:50:19.322Z,57.28
2019-03-17T16:54:24.479Z,57.15
2019-03-17T16:58:29.672Z,57.13
2019-03-17T17:02:34.777Z,57.74
2019-03-17T17:06:42.333Z,57.76
2019-03-17T17:10:50.543Z,58.27
2019-03-17T17:14:59.797Z,59.00
2019-03-17T17:19:05.119Z,58.81
2019-03-17T17:23:10.608Z,58.73
2019-03-17T17:27:15.795Z,60.56
2019-03-17T17:31:20.945Z,66.59
2019-03-17T17:35:26.136Z,68.96
2019-03-17T17:39:31.325Z,68.59
2019-03-17T17:43:36.439Z,67.54
2019-03-17T17:47:41.637Z,67.27
2019-03-17T17:51:46.848Z,67.98
2019-03-17T17:56:10.958Z,67.43
2019-03-17T18:00:19.124Z,67.68
2019-03-17T18:04:24.278Z,67.65
2019-03-17T18:08:29.482Z,68.33
2019-03-17T18:12:34.990Z,68.91
2019-03-17T18:16:41.764Z,68.80
2019-03-17T18:20:52.143Z,69.42
2019-03-17T18:24:57.273Z,70.00
2019-03-17T18:29:02.381Z,71.23
2019-03-17T18:33:07.538Z,71.99
2019-03-17T18:37:12.703Z,72.81
2019-03-17T18:41:17.787Z,72.93
2019-03-17T18:45:23.017Z,73.40
2019-03-17T18:49:47.239Z,73.77
2019-03-17T18:53:52.459Z,74.01
2019-03-17T18:57:57.856Z,74.37
2019-03-17T19:02:03.918Z,74.55
2019-03-17T19:06:09.095Z,74.45
2019-03-17T19:10:14.325Z,74.66
2019-03-17T19:14:19.435Z,74.63
2019-03-17T19:18:24.588Z,74.77
2019-03-17T19:22:29.802Z,74.77
2019-03-17T19:26:34.868Z,74.87
2019-03-17T19:30:40.102Z,74.98
2019-03-17T19:34:47.185Z,74.80
2019-03-17T19:38:52.321Z,74.60
2019-03-17T19:47:34.059Z,74.74
2019-03-17T19:51:39.132Z,74.80
2019-03-17T19:55:44.322Z,74.81
2019-03-17T19:59:49.521Z,74.62
2019-03-17T20:03:54.681Z,74.11
2019-03-17T20:07:59.908Z,74.29
2019-03-17T20:12:05.034Z,73.80
2019-03-17T20:16:10.215Z,73.81
2019-03-17T20:20:15.399Z,72.90
2019-03-17T20:24:20.578Z,72.34
2019-03-17T20:28:25.676Z,72.37
2019-03-17T20:32:30.763Z,72.05
2019-03-17T20:36:35.895Z,71.66
2019-03-17T20:40:41.028Z,71.58
2019-03-17T20:44:47.801Z,70.99
2019-03-17T20:49:12.014Z,71.16
2019-03-17T20:53:17.165Z,70.71
2019-03-17T20:57:22.244Z,69.96
2019-03-17T21:01:27.358Z,70.30
2019-03-17T21:05:32.544Z,72.34
2019-03-17T21:09:37.777Z,75.26
2019-03-17T21:13:46.986Z,76.52
2019-03-17T21:17:56.087Z,77.55
2019-03-17T21:22:01.267Z,77.69
2019-03-17T21:26:06.530Z,77.52
2019-03-17T21:30:30.766Z,77.77
2019-03-17T21:34:35.982Z,77.54
2019-03-17T21:38:41.095Z,76.84
2019-03-17T21:42:46.206Z,76.72
2019-03-17T21:46:51.723Z,76.75
2019-03-17T21:50:56.844Z,76.84
2019-03-17T21:59:18.235Z,77.09
2019-03-17T22:03:23.332Z,76.02
2019-03-17T22:07:30.414Z,75.37
2019-03-17T22:11:35.543Z,74.89
2019-03-17T22:15:40.644Z,75.29
2019-03-17T22:19:45.812Z,75.05
2019-03-17T22:23:51.436Z,75.21
2019-03-17T22:28:07.761Z,75.22
2019-03-17T22:32:09.131Z,75.29
2019-03-17T22:36:14.365Z,75.13
2019-03-17T22:40:19.626Z,75.65
2019-03-17T22:44:27.927Z,76.34
2019-03-17T22:52:53.446Z,76.06
2019-03-17T22:56:58.707Z,75.83
2019-03-17T23:01:04.134Z,75.92
2019-03-17T23:05:09.404Z,76.31
2019-03-17T23:09:14.553Z,76.28
2019-03-17T23:13:19.787Z,75.98
2019-03-17T23:17:24.944Z,76.39
2019-03-17T23:21:30.167Z,76.28
2019-03-17T23:25:35.761Z,76.09
2019-03-17T23:29:40.822Z,76.30
2019-03-17T23:33:46.095Z,76.03
2019-03-17T23:42:09.290Z,75.77
2019-03-17T23:46:14.495Z,76.15
2019-03-17T23:54:51.311Z,76.24
2019-03-17T23:58:56.570Z,76.48
